»·PEaware :: N6065L KBUR-KLAS

N6065L :: KBUR-KLAS

FLIGHT INFORMATION

Flight Status: Arrived
Operator: Privately registered:
United States
More flights under this callsign
Pilot: Kyle A. (14988)
Aircraft: Unknown
(T210)
More flights by this aircraft type
Origin: KBUR Bob Hope-Burbank
United States
Destination: KLAS McCarran Intl
United States
More flights between these airports :: More routes between these airports
Route: VNY3 DAG CRESO4
File this flight plan on PilotEdge
Remarks: I-5
Altitude:
(Current/Filed)
11,000ft
Speed:
(Current/Filed)
145kts
Departed: 28-Nov-17 02:21 PM
Arrived: 28-Nov-17 03:40 PM
Distance/Time
Traveled:
194nm/1:19
Distance/Time
To Go:
Arrived

Flight Plot

Page will automatically refresh every two minutes.

Flight plan parsing failed; only flown route is shown


Map Options




Map Legend


Flown Route
Filed Route
Departure Airport
Arrival Airport
Navaid (VOR, NDB)
Fix

Horizontal Profiles

Position Reports

Time Latitude Longitude Heading Altitude Ground
Speed
28-Nov-17 14:07 34.200076 -118.359457 120 780ft 0kts
28-Nov-17 14:08 34.200076 -118.359457 120 780ft 0kts
28-Nov-17 14:09 34.200076 -118.359457 120 780ft 0kts
28-Nov-17 14:10 34.200076 -118.359457 120 780ft 0kts
28-Nov-17 14:11 34.200076 -118.359457 120 780ft 0kts
28-Nov-17 14:12 34.200076 -118.359457 120 780ft 0kts
28-Nov-17 14:13 34.200076 -118.359457 120 780ft 0kts
28-Nov-17 14:14 34.200076 -118.359457 120 780ft 0kts
28-Nov-17 14:15 34.200076 -118.359457 120 780ft 0kts
28-Nov-17 14:16 34.200076 -118.359457 120 780ft 0kts
28-Nov-17 14:17 34.200076 -118.359457 120 780ft 0kts
28-Nov-17 14:18 34.200064 -118.359432 120 780ft 1kts
28-Nov-17 14:19 34.200100 -118.358249 349 780ft 7kts
28-Nov-17 14:20 34.202481 -118.358902 347 780ft 13kts
28-Nov-17 14:21 34.205187 -118.359645 348 780ft 7kts
28-Nov-17 14:22 34.208794 -118.360631 347 780ft 15kts
28-Nov-17 14:23 34.211591 -118.361230 42 780ft 0kts
28-Nov-17 14:24 34.211591 -118.361230 42 780ft 0kts
28-Nov-17 14:25 34.211591 -118.361230 42 780ft 0kts
28-Nov-17 14:26 34.201963 -118.357634 170 822ft 99kts
28-Nov-17 14:27 34.179894 -118.364967 225 1797ft 100kts
28-Nov-17 14:28 34.160362 -118.387985 223 2767ft 98kts
28-Nov-17 14:29 34.158630 -118.412644 343 3694ft 94kts
28-Nov-17 14:30 34.185205 -118.417471 348 4646ft 101kts
28-Nov-17 14:31 34.213245 -118.422540 348 5661ft 103kts
28-Nov-17 14:32 34.241144 -118.428714 348 6703ft 102kts
28-Nov-17 14:33 34.269624 -118.435465 348 7621ft 113kts
28-Nov-17 14:34 34.303251 -118.443238 349 8335ft 131kts
28-Nov-17 14:35 34.341255 -118.451713 349 8902ft 144kts
28-Nov-17 14:36 34.380140 -118.457778 23 9519ft 147kts
28-Nov-17 14:37 34.407341 -118.421114 48 10174ft 147kts
28-Nov-17 14:38 34.433041 -118.381077 50 10765ft 156kts
28-Nov-17 14:39 34.460678 -118.337316 54 11088ft 176kts
28-Nov-17 14:40 34.491268 -118.288367 54 10994ft 184kts
28-Nov-17 14:41 34.521913 -118.239424 54 11003ft 179kts
28-Nov-17 14:42 34.550946 -118.192912 53 11003ft 168kts
28-Nov-17 14:43 34.578626 -118.148702 56 11003ft 163kts
28-Nov-17 14:44 34.606325 -118.104242 55 11005ft 171kts
28-Nov-17 14:45 34.632414 -118.053091 84 11008ft 183kts
28-Nov-17 14:46 34.639567 -117.990659 85 10997ft 190kts
28-Nov-17 14:47 34.646579 -117.926358 84 10977ft 193kts
28-Nov-17 14:48 34.651173 -117.884189 84 10977ft 193kts
28-Nov-17 14:49 34.658199 -117.819420 84 10995ft 192kts
28-Nov-17 14:50 34.666501 -117.755004 72 10997ft 195kts
28-Nov-17 14:51 34.682508 -117.692342 74 10995ft 195kts
28-Nov-17 14:52 34.698662 -117.629452 74 10995ft 195kts
28-Nov-17 14:53 34.714653 -117.566917 74 11020ft 191kts
28-Nov-17 14:54 34.730169 -117.506010 73 11021ft 185kts
28-Nov-17 14:55 34.745418 -117.446472 75 11021ft 185kts
28-Nov-17 14:56 34.760826 -117.385586 74 11023ft 192kts
28-Nov-17 14:57 34.776526 -117.323683 75 11022ft 194kts
28-Nov-17 14:58 34.792357 -117.261078 75 11022ft 195kts
28-Nov-17 14:59 34.808270 -117.197988 75 11022ft 195kts
28-Nov-17 15:00 34.824175 -117.134783 75 11022ft 195kts
28-Nov-17 15:01 34.839543 -117.073554 75 11007ft 196kts
28-Nov-17 15:02 34.855429 -117.010116 75 11004ft 196kts
28-Nov-17 15:03 34.871265 -116.946727 75 11004ft 195kts
28-Nov-17 15:04 34.887042 -116.883411 75 11004ft 195kts
28-Nov-17 15:05 34.902830 -116.819891 75 11004ft 196kts
28-Nov-17 15:06 34.918592 -116.756325 75 11005ft 196kts
28-Nov-17 15:07 34.934339 -116.692660 75 11005ft 196kts
28-Nov-17 15:08 34.950040 -116.629017 75 11005ft 196kts
28-Nov-17 15:09 34.967828 -116.566678 62 11031ft 196kts
28-Nov-17 15:10 34.993671 -116.508234 62 11006ft 196kts
28-Nov-17 15:11 35.018358 -116.452713 63 11005ft 195kts
28-Nov-17 15:12 35.044160 -116.394541 62 11005ft 195kts
28-Nov-17 15:13 35.069586 -116.337132 63 11005ft 194kts
28-Nov-17 15:14 35.095190 -116.279225 63 11005ft 194kts
28-Nov-17 15:15 35.120078 -116.222834 63 11002ft 194kts
28-Nov-17 15:16 35.145705 -116.164673 63 11002ft 194kts
28-Nov-17 15:17 35.171185 -116.106745 63 11002ft 194kts
28-Nov-17 15:18 35.192468 -116.058286 63 11002ft 194kts
28-Nov-17 15:19 35.217938 -116.000201 63 11003ft 194kts
28-Nov-17 15:20 35.240533 -115.948580 61 11003ft 194kts
28-Nov-17 15:21 35.261873 -115.899708 61 11003ft 197kts
28-Nov-17 15:22 35.287723 -115.840532 61 11010ft 197kts
28-Nov-17 15:23 35.314290 -115.782095 46 11016ft 197kts
28-Nov-17 15:24 35.351497 -115.732809 46 11022ft 197kts
28-Nov-17 15:25 35.388452 -115.683613 46 11028ft 197kts
28-Nov-17 15:26 35.425581 -115.634033 46 11030ft 197kts
28-Nov-17 15:27 35.462616 -115.584503 46 11030ft 197kts
28-Nov-17 15:28 35.499704 -115.534832 46 11030ft 198kts
28-Nov-17 15:29 35.537089 -115.484715 46 11030ft 199kts
28-Nov-17 15:30 35.578383 -115.441680 9 10937ft 198kts
28-Nov-17 15:31 35.631670 -115.425521 8 10373ft 203kts
28-Nov-17 15:32 35.687494 -115.411664 8 9534ft 205kts
28-Nov-17 15:33 35.743145 -115.397774 8 8693ft 203kts
28-Nov-17 15:34 35.797729 -115.384185 8 7852ft 199kts
28-Nov-17 15:35 35.851192 -115.371020 8 7056ft 193kts
28-Nov-17 15:36 35.901666 -115.358576 8 7004ft 178kts
28-Nov-17 15:37 35.948390 -115.343587 29 6998ft 178kts
28-Nov-17 15:38 35.989145 -115.309626 32 6883ft 178kts
28-Nov-17 15:39 36.026057 -115.267898 46 5822ft 176kts
28-Nov-17 15:40 36.055394 -115.226930 44 4720ft 141kts
28-Nov-17 15:41 36.081084 -115.197383 37 4002ft 115kts
28-Nov-17 15:42 36.110832 -115.175407 33 4020ft 112kts
28-Nov-17 15:43 36.131629 -115.155963 93 3522ft 87kts
28-Nov-17 15:44 36.112270 -115.149145 202 2480ft 88kts
28-Nov-17 15:45 36.093357 -115.160049 205 2115ft 28kts
28-Nov-17 15:46 36.089849 -115.164376 0 2114ft 8kts
28-Nov-17 15:47 36.094133 -115.162006 23 2115ft 15kts
28-Nov-17 15:48 36.098637 -115.161187 321 2115ft 17kts
28-Nov-17 15:49 36.098961 -115.161264 127 2115ft 0kts
28-Nov-17 15:50 36.098961 -115.161264 127 2115ft 0kts
28-Nov-17 15:51 36.098961 -115.161264 127 2115ft 0kts
28-Nov-17 15:52 36.098961 -115.161264 127 2115ft 0kts

Navigation Log

Ident Type
Flight plan parsing failed, navigation log unavailable